Latest Weather Observations for Jabiru

IDD60801

Issued at 9:31 pm CST Sunday 1 March 2015 (issued every 30 minutes, with the page automatically refreshed every 10 minutes)

About weather observations | Map of weather stations | Latest weather observations for NT | Other Formats
Station Details ID: 014198 Name: JABIRU AIRPORT Lat: -12.66 Lon: 132.89 Height: 26.5 m
Data from the previous 72 hours. | See also: Recent months at Jabiru
Date/Time
CST
Temp
°C
App
Temp
°C
Dew
Point
Rel
Hum
%
Delta-T
°C
Wind Press
QNH
hPa
Press
MSL
hPa
Rain
since 9 am
mm
Dir
 
Spd
km/h
Gust
km/h
Spd
kts
Gust
kts
01/09:30pm 25.2 30.4 23.6 91 1.1 SE 2 7 1 4 1006.9 1006.7 16.2
01/09:00pm 25.0 29.7 23.4 91 1.1 SSW 4 9 2 5 1006.5 1006.3 16.2
01/08:30pm 25.1 29.6 23.7 92 1.0 SW 6 11 3 6 1005.7 1005.5 16.2
01/08:00pm 25.1 29.3 23.5 91 1.1 WNW 7 13 4 7 1006.0 1005.8 16.2
01/07:30pm 25.4 29.6 23.1 87 1.6 SW 6 11 3 6 1005.8 1005.6 15.6
01/07:00pm 25.5 28.7 23.0 86 1.7 NW 11 17 6 9 1005.6 1005.4 15.6
01/06:30pm 26.5 30.1 24.3 88 1.5 WNW 13 20 7 11 1004.5 1004.3 15.6
01/06:00pm 25.4 29.9 24.0 92 1.0 SSW 7 11 4 6 1004.4 1004.2 15.6
01/05:30pm 24.5 28.1 22.4 88 1.4 S 7 13 4 7 1003.5 1003.3 15.6
01/05:20pm 24.6 25.5 21.9 85 1.8 SE 20 33 11 18 1003.4 1003.2 12.4
01/05:00pm 29.6 35.4 25.8 80 2.7 NW 6 13 3 7 1003.3 1003.1 2.0
01/04:30pm 32.6 36.0 24.6 62 5.6 WNW 15 19 8 10 1001.9 1001.7 0.0
01/04:00pm 33.8 37.2 24.1 57 6.8 W 13 17 7 9 1002.1 1001.9 0.0
01/03:30pm 33.3 36.2 24.5 60 6.2 W 17 20 9 11 1002.3 1002.1 0.0
01/03:00pm 33.7 37.4 24.6 59 6.4 W 13 17 7 9 1003.2 1003.0 0.0
01/02:30pm 33.5 37.3 24.7 60 6.2 W 13 20 7 11 1003.9 1003.7 0.0
01/02:00pm 33.5 37.2 25.2 62 5.9 W 15 20 8 11 1004.4 1004.2 0.0
01/01:30pm 33.1 37.0 24.8 61 5.9 W 13 20 7 11 1005.0 1004.8 0.0
01/01:00pm 32.7 36.2 24.2 61 6.0 WSW 13 17 7 9 1005.7 1005.5 0.0
01/12:30pm 32.9 37.3 25.7 66 5.1 SW 13 19 7 10 1006.4 1006.2 0.0
01/12:00pm 32.0 36.6 24.8 65 5.1 SW 9 13 5 7 1006.8 1006.6 0.0
01/11:30am 31.7 35.9 24.8 67 4.9 SW 11 17 6 9 1007.3 1007.1 0.0
01/11:00am 30.8 34.7 24.9 71 4.1 SW 13 20 7 11 1007.4 1007.2 0.0
01/10:30am 29.9 34.1 24.8 74 3.6 WSW 11 20 6 11 1007.5 1007.3 0.0
01/10:00am 29.4 33.3 24.9 77 3.2 WSW 13 20 7 11 1007.7 1007.5 0.0
01/09:30am 28.8 32.8 25.0 80 2.7 SW 13 20 7 11 1007.8 1007.6 0.0
01/09:00am 28.2 33.6 25.4 85 2.0 SW 7 11 4 6 1007.9 1007.7 3.8
01/08:30am 27.4 32.8 25.4 89 1.4 WNW 7 9 4 5 1008.1 1007.9 3.8
01/08:00am 27.0 32.6 24.8 88 1.5 WSW 4 7 2 4 1007.5 1007.3 3.8
01/07:30am 26.5 32.6 25.1 92 1.0 SSW 2 11 1 6 1006.8 1006.6 3.8
01/07:00am 25.9 32.3 24.9 94 0.7 CALM 0 0 0 0 1006.7 1006.5 3.8
01/06:30am 25.8 32.1 24.8 94 0.7 CALM 0 0 0 0 1006.4 1006.2 3.8
01/06:00am 25.8 32.1 24.8 94 0.7 CALM 0 0 0 0 1005.9 1005.7 3.8
01/05:30am 25.8 32.1 24.8 94 0.7 CALM 0 0 0 0 1005.5 1005.3 3.8
01/05:00am 25.7 30.8 24.7 94 0.7 NNW 6 6 3 3 1005.3 1005.1 3.8
01/04:30am 25.8 32.1 24.8 94 0.7 CALM 0 0 0 0 1005.3 1005.1 3.8
01/04:00am 25.7 32.0 24.7 94 0.7 CALM 0 0 0 0 1005.2 1005.0 3.8
01/03:30am 25.9 32.2 24.7 93 0.8 CALM 0 0 0 0 1005.6 1005.4 3.8
01/03:00am 25.8 31.6 24.6 93 0.8 N 2 7 1 4 1006.0 1005.8 3.8
01/02:30am 25.6 31.4 24.0 91 1.1 CALM 0 0 0 0 1005.9 1005.7 3.8
01/02:00am 25.6 31.4 24.0 91 1.1 CALM 0 0 0 0 1006.2 1006.0 3.8
01/01:30am 25.3 31.0 23.7 91 1.1 CALM 0 2 0 1 1006.7 1006.5 3.8
01/01:00am 25.3 29.8 23.9 92 1.0 NE 7 7 4 4 1006.9 1006.7 3.8
01/12:30am 25.6 31.2 23.6 89 1.4 CALM 0 0 0 0 1007.0 1006.8 3.8
01/12:00am 25.6 31.3 23.8 90 1.2 CALM 0 0 0 0 1007.7 1007.5 3.8
 
Date/Time
CST
Temp
°C
App
Temp
°C
Dew
Point
Rel
Hum
%
Delta-T
°C
Wind Press
QNH
hPa
Press
MSL
hPa
Rain
since 9 am
mm
Dir
 
Spd
km/h
Gust
km/h
Spd
kts
Gust
kts
28/11:30pm 25.6 29.9 23.3 87 1.6 SSW 6 7 3 4 1008.2 1008.0 3.8
28/11:00pm 25.6 29.9 23.3 87 1.6 SSW 6 9 3 5 1007.9 1007.7 3.8
28/10:30pm 25.5 29.6 23.0 86 1.7 ESE 6 7 3 4 1007.3 1007.1 3.8
28/10:00pm 25.4 29.1 22.3 83 2.1 SSW 6 9 3 5 1007.0 1006.8 3.8
28/09:30pm 25.4 29.5 22.3 83 2.1 SSW 4 6 2 3 1006.7 1006.5 3.8
28/09:00pm 25.7 29.4 22.6 83 2.1 W 7 9 4 5 1006.4 1006.2 3.8
28/08:30pm 26.1 29.8 23.2 84 2.0 NNW 9 13 5 7 1005.7 1005.5 3.8
28/08:00pm 25.7 29.9 23.4 87 1.6 NNE 7 11 4 6 1005.6 1005.4 3.8
28/07:30pm 26.0 29.9 22.9 83 2.1 WNW 7 11 4 6 1004.8 1004.6 3.8
28/07:00pm 26.3 28.1 23.2 83 2.1 NNW 19 26 10 14 1004.6 1004.4 3.2
28/06:30pm 31.2 37.0 26.0 74 3.7 E 7 15 4 8 1004.4 1004.2 0.4
28/06:00pm 32.8 38.5 25.6 66 5.1 NW 6 11 3 6 1003.9 1003.7 0.4
28/05:30pm 31.9 37.3 25.5 69 4.6 N 7 9 4 5 1003.7 1003.5 0.4
28/05:00pm 33.2 38.1 24.7 61 6.0 W 7 15 4 8 1003.6 1003.4 0.2
28/04:30pm 33.4 37.9 24.0 58 6.6 WSW 7 9 4 5 1003.8 1003.6 0.2
28/04:00pm 33.9 39.2 25.0 59 6.3 WSW 6 13 3 7 1004.1 1003.9 0.2
28/03:30pm 34.3 39.3 25.4 60 6.4 W 9 20 5 11 1004.4 1004.2 0.2
28/03:00pm 33.6 37.8 24.8 60 6.2 W 11 17 6 9 1004.8 1004.6 0.2
28/02:30pm 33.6 38.2 24.8 60 6.2 WSW 9 17 5 9 1005.1 1004.9 0.2
28/02:00pm 32.8 37.2 24.5 61 5.8 WSW 9 15 5 8 1005.6 1005.4 0.2
28/01:30pm 32.3 36.8 24.6 64 5.4 WSW 9 20 5 11 1006.1 1005.9 0.2
28/01:00pm 32.2 36.8 25.3 67 4.9 WSW 11 15 6 8 1006.8 1006.6 0.2
28/12:30pm 31.5 34.7 24.4 66 5.0 WSW 15 20 8 11 1007.3 1007.1 0.2
28/12:00pm 30.9 35.3 25.0 71 4.2 SW 11 17 6 9 1007.7 1007.5 0.2
28/11:30am 29.8 33.8 24.4 73 3.8 WSW 11 15 6 8 1007.9 1007.7 0.2
28/11:00am 29.7 33.9 24.8 75 3.4 WSW 11 19 6 10 1007.8 1007.6 0.2
28/10:30am 28.9 33.3 25.1 80 2.7 WSW 11 17 6 9 1008.1 1007.9 0.0
28/10:00am 28.3 32.1 24.7 81 2.5 WSW 13 20 7 11 1008.4 1008.2 0.0
28/09:30am 27.6 32.7 25.0 86 1.8 SW 7 13 4 7 1008.4 1008.2 0.0
28/09:00am 27.0 31.2 24.8 88 1.5 SSW 11 13 6 7 1008.1 1007.9 25.2
28/08:30am 26.5 31.1 24.7 90 1.3 SW 9 13 5 7 1007.6 1007.4 25.2
28/08:00am 26.2 30.8 24.2 89 1.4 SW 7 13 4 7 1007.3 1007.1 25.2
28/07:30am 25.7 31.5 24.5 93 0.8 S 2 9 1 5 1007.1 1006.9 25.2
28/07:00am 25.0 30.1 24.1 95 0.6 SSE 4 7 2 4 1006.9 1006.7 25.2
28/06:30am 24.9 30.9 24.2 96 0.5 CALM 0 6 0 3 1006.9 1006.7 25.2
28/06:00am 24.6 29.6 23.9 96 0.5 SW 4 6 2 3 1006.9 1006.7 25.2
28/05:30am 24.7 30.4 23.8 95 0.6 CALM 0 0 0 0 1006.8 1006.6 25.2
28/05:00am 24.8 30.7 24.1 96 0.5 CALM 0 0 0 0 1006.8 1006.6 25.2
28/04:30am 24.7 30.4 23.8 95 0.6 CALM 0 0 0 0 1007.0 1006.8 25.2
28/04:00am 24.6 30.3 23.7 95 0.6 CALM 0 0 0 0 1007.0 1006.8 25.2
28/03:30am 24.5 30.1 23.6 95 0.6 CALM 0 0 0 0 1007.0 1006.8 25.2
28/03:00am 24.5 29.9 23.8 96 0.5 W 2 7 1 4 1007.1 1006.9 25.2
28/02:30am 24.5 28.9 23.8 96 0.5 NNW 7 9 4 5 1007.3 1007.1 25.2
28/02:00am 24.6 30.0 23.9 96 0.5 W 2 6 1 3 1007.6 1007.4 25.2
28/01:30am 24.5 29.0 24.0 97 0.3 W 7 9 4 5 1007.4 1007.2 25.2
28/01:00am 24.4 29.2 23.5 95 0.6 NNE 4 7 2 4 1007.5 1007.3 25.2
28/12:30am 24.5 30.1 23.6 95 0.6 CALM 0 0 0 0 1007.4 1007.2 25.2
28/12:00am 24.2 28.4 23.5 96 0.5 SSE 7 13 4 7 1008.1 1007.9 25.2
 
Date/Time
CST
Temp
°C
App
Temp
°C
Dew
Point
Rel
Hum
%
Delta-T
°C
Wind Press
QNH
hPa
Press
MSL
hPa
Rain
since 9 am
mm
Dir
 
Spd
km/h
Gust
km/h
Spd
kts
Gust
kts
27/11:30pm 24.0 27.4 23.3 96 0.5 E 11 17 6 9 1008.2 1008.0 25.2
27/11:00pm 24.1 28.3 23.4 96 0.5 E 7 11 4 6 1009.1 1008.9 25.2
27/10:30pm 24.3 28.8 23.6 96 0.5 ENE 6 7 3 4 1009.3 1009.1 25.2
27/10:00pm 24.3 28.7 23.4 95 0.6 E 6 7 3 4 1009.3 1009.1 25.2
27/09:30pm 24.5 28.3 23.5 94 0.7 NNW 9 11 5 6 1009.2 1009.0 25.2
27/09:00pm 24.5 28.4 23.6 95 0.6 W 9 13 5 7 1008.5 1008.3 25.2
27/08:30pm 24.3 27.8 23.6 96 0.5 WSW 11 15 6 8 1008.3 1008.1 24.8
27/08:00pm 23.9 27.5 23.0 95 0.6 SSE 9 11 5 6 1008.9 1008.7 22.8
27/07:30pm 23.9 26.8 23.2 96 0.5 W 13 19 7 10 1007.4 1007.2 22.8
27/07:00pm 23.8 27.7 22.9 95 0.6 NNW 7 13 4 7 1007.0 1006.8 19.8
27/06:30pm 23.5 27.2 22.3 93 0.8 SSW 6 7 3 4 1006.3 1006.1 19.0
27/06:00pm 23.7 28.0 22.7 94 0.7 NNW 4 9 2 5 1005.9 1005.7 18.8
27/05:30pm 23.4 24.4 22.2 93 0.8 N 20 30 11 16 1005.7 1005.5 18.4
27/05:00pm 23.2 21.6 21.6 91 1.1 NE 32 52 17 28 1005.5 1005.3 16.4
27/04:38pm 27.8 28.2 20.9 66 4.6 NNE 20 52 11 28 1005.0 1004.8 0.0
27/04:37pm 28.3 28.9 21.1 65 4.8 NNE 19 43 10 23 1005.0 1004.8 0.0
27/04:30pm 30.8 33.5 24.2 68 4.6 WNW 17 24 9 13 1003.8 1003.6 0.0
27/04:00pm 33.4 37.5 24.6 60 6.2 W 11 17 6 9 1003.5 1003.3 0.0
27/03:30pm 34.8 37.1 24.1 53 7.5 WNW 19 24 10 13 1003.3 1003.1 0.0
27/03:00pm 34.3 36.5 23.3 52 7.7 WSW 17 24 9 13 1003.5 1003.3 0.0
27/02:30pm 33.8 37.1 23.8 56 7.0 W 13 24 7 13 1004.2 1004.0 0.0
27/02:00pm 33.7 36.4 23.4 55 7.2 WSW 15 20 8 11 1004.8 1004.6 0.0
27/01:30pm 33.1 37.1 23.7 57 6.6 W 9 20 5 11 1005.5 1005.3 0.0
27/01:00pm 32.4 35.9 24.2 62 5.7 W 13 17 7 9 1006.3 1006.1 0.0
27/12:30pm 32.6 35.3 23.5 58 6.3 WSW 15 24 8 13 1006.8 1006.6 0.0
27/12:00pm 31.9 35.6 24.5 65 5.2 SW 13 19 7 10 1007.3 1007.1 0.0
27/11:30am 31.3 34.2 23.9 64 5.2 WSW 15 30 8 16 1007.6 1007.4 0.0
27/11:00am 30.6 34.2 24.3 69 4.4 W 13 20 7 11 1008.1 1007.9 0.0
27/10:30am 30.0 34.3 24.2 71 4.0 W 9 13 5 7 1008.6 1008.4 0.0
27/10:00am 29.2 33.5 23.6 72 3.9 WSW 7 11 4 6 1008.5 1008.3 0.0
27/09:30am 28.4 32.7 23.3 74 3.5 WSW 6 9 3 5 1008.4 1008.2 0.0
27/09:00am 27.8 33.3 23.4 77 3.0 CALM 0 0 0 0 1008.2 1008.0 0.0
27/08:30am 27.0 32.1 23.3 80 2.5 N 2 7 1 4 1007.9 1007.7 0.0
27/08:00am 26.5 30.8 23.6 84 2.0 E 7 9 4 5 1007.5 1007.3 0.0
27/07:30am 25.5 31.2 23.7 90 1.2 CALM 0 7 0 4 1007.3 1007.1 0.0
27/07:00am 25.0 30.3 23.1 89 1.3 CALM 0 0 0 0 1007.2 1007.0 0.0
27/06:30am 25.0 30.3 23.1 89 1.3 CALM 0 0 0 0 1007.2 1007.0 0.0
27/06:00am 25.1 30.5 23.2 89 1.3 CALM 0 0 0 0 1007.1 1006.9 0.0
27/05:30am 24.9 30.3 23.3 91 1.1 CALM 0 0 0 0 1007.1 1006.9 0.0
27/05:00am 24.8 30.1 23.0 90 1.2 CALM 0 0 0 0 1006.6 1006.4 0.0
27/04:30am 25.0 30.3 23.1 89 1.3 CALM 0 0 0 0 1006.3 1006.1 0.0
27/04:00am 25.2 30.4 22.9 87 1.6 CALM 0 0 0 0 1006.3 1006.1 0.0
27/03:30am 25.3 30.6 23.0 87 1.6 CALM 0 0 0 0 1006.5 1006.3 0.0
27/03:00am 25.2 30.6 23.3 89 1.3 CALM 0 0 0 0 1006.5 1006.3 0.0
27/02:30am 25.0 30.4 23.2 90 1.2 CALM 0 0 0 0 1006.8 1006.6 0.0
27/02:00am 25.0 30.3 23.1 89 1.3 CALM 0 0 0 0 1006.9 1006.7 0.0
27/01:30am 25.0 29.8 22.9 88 1.4 SSW 2 6 1 3 1007.4 1007.2 0.0
27/01:00am 25.3 29.4 23.2 88 1.4 WNW 7 9 4 5 1007.8 1007.6 0.0
27/12:30am 25.5 29.2 23.2 87 1.6 W 9 11 5 6 1008.4 1008.2 0.0
27/12:00am 25.6 29.9 23.3 87 1.6 SW 6 9 3 5 1008.6 1008.4 0.0
 
Date/Time
CST
Temp
°C
App
Temp
°C
Dew
Point
Rel
Hum
%
Delta-T
°C
Wind Press
QNH
hPa
Press
MSL
hPa
Rain
since 9 am
mm
Dir
 
Spd
km/h
Gust
km/h
Spd
kts
Gust
kts
26/11:30pm 26.0 29.8 23.5 86 1.7 W 9 15 5 8 1008.8 1008.6 0.0
26/11:00pm 26.1 30.3 24.1 89 1.4 W 9 15 5 8 1008.9 1008.7 0.0
26/10:30pm 25.9 30.2 24.3 91 1.1 WNW 9 15 5 8 1009.1 1008.9 0.0
26/10:00pm 26.1 31.0 24.7 92 1.0 WNW 7 9 4 5 1008.9 1008.7 0.0

Other Formats:

Comma delimited format used in spreadsheet applications
http://www.bom.gov.au/fwo/IDD60801/IDD60801.94137.axf

JavaScript Object Notation format (JSON) in row-major order
http://www.bom.gov.au/fwo/IDD60801/IDD60801.94137.json